sensor_id;sensor_type;location;lat;lon;timestamp;pressure;altitude;pressure_sealevel;temperature;humidity
11017;BME280;54687;50.800;6.772;2023-11-19T00:01:51;94525.09;;;-144.06;27.55
11017;BME280;54687;50.800;6.772;2023-11-19T00:04:17;94525.09;;;-144.06;27.55
11017;BME280;54687;50.800;6.772;2023-11-19T00:06:44;94531.44;;;-144.06;27.94
11017;BME280;54687;50.800;6.772;2023-11-19T00:09:11;94539.91;;;-144.06;27.72
11017;BME280;54687;50.800;6.772;2023-11-19T00:11:39;94544.16;;;-144.06;27.76
11017;BME280;54687;50.800;6.772;2023-11-19T00:14:05;94510.28;;;-144.06;27.77
11017;BME280;54687;50.800;6.772;2023-11-19T00:16:33;94501.81;;;-144.06;27.95
11017;BME280;54687;50.800;6.772;2023-11-19T00:19:00;94520.88;;;-144.06;28.17
11017;BME280;54687;50.800;6.772;2023-11-19T00:21:27;94497.56;;;-144.06;27.72
11017;BME280;54687;50.800;6.772;2023-11-19T00:23:54;94470.06;;;-144.06;27.82
11017;BME280;54687;50.800;6.772;2023-11-19T00:26:23;94408.69;;;-144.06;27.89
11017;BME280;54687;50.800;6.772;2023-11-19T00:28:51;94429.84;;;-144.06;27.52
11017;BME280;54687;50.800;6.772;2023-11-19T00:31:18;94412.91;;;-144.06;27.62
11017;BME280;54687;50.800;6.772;2023-11-19T00:33:45;94461.59;;;-144.06;27.93
11017;BME280;54687;50.800;6.772;2023-11-19T00:36:11;94484.88;;;-144.06;27.91
11017;BME280;54687;50.800;6.772;2023-11-19T00:38:38;94431.97;;;-144.06;27.85
11017;BME280;54687;50.800;6.772;2023-11-19T00:41:05;94436.19;;;-144.06;27.75
11017;BME280;54687;50.800;6.772;2023-11-19T00:43:31;94391.75;;;-144.06;27.64
11017;BME280;54687;50.800;6.772;2023-11-19T00:46:00;94429.84;;;-144.06;27.91
11017;BME280;54687;50.800;6.772;2023-11-19T00:48:35;94463.72;;;-144.06;27.80
11017;BME280;54687;50.800;6.772;2023-11-19T00:51:04;94455.25;;;-144.06;28.03
11017;BME280;54687;50.800;6.772;2023-11-19T00:53:32;94408.69;;;-144.06;27.75
11017;BME280;54687;50.800;6.772;2023-11-19T00:55:59;94467.94;;;-144.06;27.87
11017;BME280;54687;50.800;6.772;2023-11-19T00:58:25;94561.09;;;-144.06;28.41
11017;BME280;54687;50.800;6.772;2023-11-19T01:00:52;94510.28;;;-144.06;28.09
11017;BME280;54687;50.800;6.772;2023-11-19T01:03:20;94497.56;;;-144.06;28.22
11017;BME280;54687;50.800;6.772;2023-11-19T01:05:48;94480.66;;;-144.06;28.23
11017;BME280;54687;50.800;6.772;2023-11-19T01:08:15;94487.00;;;-144.06;27.98
11017;BME280;54687;50.800;6.772;2023-11-19T01:10:45;94434.06;;;-144.06;28.08
11017;BME280;54687;50.800;6.772;2023-11-19T01:13:13;94423.50;;;-144.06;27.75
11017;BME280;54687;50.800;6.772;2023-11-19T01:15:39;94343.06;;;-144.06;27.89
11017;BME280;54687;50.800;6.772;2023-11-19T01:18:06;94360.00;;;-144.06;27.87
11017;BME280;54687;50.800;6.772;2023-11-19T01:20:37;94319.78;;;-144.06;27.58
11017;BME280;54687;50.800;6.772;2023-11-19T01:23:04;94379.03;;;-144.06;27.70
11017;BME280;54687;50.800;6.772;2023-11-19T01:25:31;94438.31;;;-144.06;28.21
11017;BME280;54687;50.800;6.772;2023-11-19T01:27:58;94336.72;;;-144.06;27.86
11017;BME280;54687;50.800;6.772;2023-11-19T01:30:26;94302.84;;;-144.06;27.86
11017;BME280;54687;50.800;6.772;2023-11-19T01:32:52;94311.31;;;-144.06;27.77
11017;BME280;54687;50.800;6.772;2023-11-19T01:35:19;94281.69;;;-144.06;27.66
11017;BME280;54687;50.800;6.772;2023-11-19T01:37:48;94311.31;;;-144.06;27.96
11017;BME280;54687;50.800;6.772;2023-11-19T01:40:20;94370.56;;;-144.06;28.09
11017;BME280;54687;50.800;6.772;2023-11-19T01:42:48;94351.53;;;-144.06;28.21
11017;BME280;54687;50.800;6.772;2023-11-19T01:45:27;94362.09;;;-144.06;27.89
11017;BME280;54687;50.800;6.772;2023-11-19T01:47:56;94285.91;;;-144.06;27.94
11017;BME280;54687;50.800;6.772;2023-11-19T01:50:23;94209.72;;;-144.06;27.98
11017;BME280;54687;50.800;6.772;2023-11-19T01:52:52;94264.75;;;-144.06;27.80
11017;BME280;54687;50.800;6.772;2023-11-19T01:55:20;94241.47;;;-144.06;28.11
11017;BME280;54687;50.800;6.772;2023-11-19T01:57:48;94222.41;;;-144.06;27.75
11017;BME280;54687;50.800;6.772;2023-11-19T02:00:35;94228.75;;;-144.06;27.53
11017;BME280;54687;50.800;6.772;2023-11-19T02:03:02;94235.13;;;-144.06;27.70
11017;BME280;54687;50.800;6.772;2023-11-19T02:05:29;94184.31;;;-144.06;27.70
11017;BME280;54687;50.800;6.772;2023-11-19T02:07:59;94266.88;;;-144.06;27.57
11017;BME280;54687;50.800;6.772;2023-11-19T02:10:26;94260.50;;;-144.06;27.75
11017;BME280;54687;50.800;6.772;2023-11-19T02:12:54;94381.16;;;-144.06;27.85
11017;BME280;54687;50.800;6.772;2023-11-19T02:15:21;94298.63;;;-144.06;27.84
11017;BME280;54687;50.800;6.772;2023-11-19T02:17:50;94252.03;;;-144.06;27.79
11017;BME280;54687;50.800;6.772;2023-11-19T02:20:17;94465.81;;;-144.06;27.42
11017;BME280;54687;50.800;6.772;2023-11-19T02:22:45;94279.56;;;-144.06;27.45
11017;BME280;54687;50.800;6.772;2023-11-19T02:25:20;94197.00;;;-144.06;27.41
11017;BME280;54687;50.800;6.772;2023-11-19T02:27:53;94256.28;;;-144.06;27.35
11017;BME280;54687;50.800;6.772;2023-11-19T02:30:22;94290.16;;;-144.06;27.65
11017;BME280;54687;50.800;6.772;2023-11-19T02:32:52;94256.28;;;-144.06;27.55
11017;BME280;54687;50.800;6.772;2023-11-19T02:35:19;94243.56;;;-144.06;27.49
11017;BME280;54687;50.800;6.772;2023-11-19T02:37:47;94220.28;;;-144.06;27.32
11017;BME280;54687;50.800;6.772;2023-11-19T02:40:14;94226.66;;;-144.06;27.51
11017;BME280;54687;50.800;6.772;2023-11-19T02:42:41;94139.88;;;-144.06;27.11
11017;BME280;54687;50.800;6.772;2023-11-19T02:45:09;94146.22;;;-144.06;27.31
11017;BME280;54687;50.800;6.772;2023-11-19T02:47:40;94194.91;;;-144.06;27.03
11017;BME280;54687;50.800;6.772;2023-11-19T02:50:08;94207.59;;;-144.06;27.26
11017;BME280;54687;50.800;6.772;2023-11-19T02:52:40;94228.75;;;-144.06;27.19
11017;BME280;54687;50.800;6.772;2023-11-19T02:55:07;94226.66;;;-144.06;27.13
11017;BME280;54687;50.800;6.772;2023-11-19T02:57:39;94169.50;;;-144.06;26.90
11017;BME280;54687;50.800;6.772;2023-11-19T03:00:13;94207.59;;;-144.06;26.94
11017;BME280;54687;50.800;6.772;2023-11-19T03:02:40;94201.25;;;-144.06;27.06
11017;BME280;54687;50.800;6.772;2023-11-19T03:05:12;94201.25;;;-144.06;26.79
11017;BME280;54687;50.800;6.772;2023-11-19T03:07:41;94243.56;;;-144.06;27.01
11017;BME280;54687;50.800;6.772;2023-11-19T03:10:09;94275.31;;;-144.06;26.91
11017;BME280;54687;50.800;6.772;2023-11-19T03:12:39;94336.72;;;-144.06;27.18
11017;BME280;54687;50.800;6.772;2023-11-19T03:15:06;94309.19;;;-144.06;26.96
11017;BME280;54687;50.800;6.772;2023-11-19T03:17:38;94290.16;;;-144.06;27.09
11017;BME280;54687;50.800;6.772;2023-11-19T03:20:06;94332.47;;;-144.06;27.24
11017;BME280;54687;50.800;6.772;2023-11-19T03:22:35;94334.59;;;-144.06;27.04
11017;BME280;54687;50.800;6.772;2023-11-19T03:25:01;94374.81;;;-144.06;27.21
11017;BME280;54687;50.800;6.772;2023-11-19T03:27:28;94353.66;;;-144.06;27.25
11017;BME280;54687;50.800;6.772;2023-11-19T03:29:55;94412.91;;;-144.06;27.51
11017;BME280;54687;50.800;6.772;2023-11-19T03:32:21;94412.91;;;-144.06;27.18
11017;BME280;54687;50.800;6.772;2023-11-19T03:34:49;94446.78;;;-144.06;27.45
11017;BME280;54687;50.800;6.772;2023-11-19T03:37:16;94400.22;;;-144.06;27.27
11017;BME280;54687;50.800;6.772;2023-11-19T03:39:43;94578.00;;;-144.06;27.55
11017;BME280;54687;50.800;6.772;2023-11-19T03:42:10;94442.53;;;-144.06;27.33
11017;BME280;54687;50.800;6.772;2023-11-19T03:44:38;94412.91;;;-144.06;27.44
11017;BME280;54687;50.800;6.772;2023-11-19T03:47:05;94429.84;;;-144.06;27.47
11017;BME280;54687;50.800;6.772;2023-11-19T03:49:32;94455.25;;;-144.06;27.17
11017;BME280;54687;50.800;6.772;2023-11-19T03:52:00;94616.13;;;-144.06;27.62
11017;BME280;54687;50.800;6.772;2023-11-19T03:54:27;94588.59;;;-144.06;27.68
11017;BME280;54687;50.800;6.772;2023-11-19T03:56:53;94586.47;;;-144.06;27.94
11017;BME280;54687;50.800;6.772;2023-11-19T03:59:20;94527.22;;;-144.06;27.62
11017;BME280;54687;50.800;6.772;2023-11-19T04:01:46;94476.41;;;-144.06;27.72
11017;BME280;54687;50.800;6.772;2023-11-19T04:04:13;94463.72;;;-144.06;27.63
11017;BME280;54687;50.800;6.772;2023-11-19T04:06:40;94436.19;;;-144.06;28.02
11017;BME280;54687;50.800;6.772;2023-11-19T04:09:09;94412.91;;;-144.06;27.72
11017;BME280;54687;50.800;6.772;2023-11-19T04:11:35;94381.16;;;-144.06;27.42
11017;BME280;54687;50.800;6.772;2023-11-19T04:14:02;94309.19;;;-144.06;27.32
11017;BME280;54687;50.800;6.772;2023-11-19T04:16:28;94285.91;;;-144.06;27.27
11017;BME280;54687;50.800;6.772;2023-11-19T04:18:55;94256.28;;;-144.06;27.33
11017;BME280;54687;50.800;6.772;2023-11-19T04:21:22;94260.50;;;-144.06;27.37
11017;BME280;54687;50.800;6.772;2023-11-19T04:23:49;94324.00;;;-144.06;27.14
11017;BME280;54687;50.800;6.772;2023-11-19T04:26:17;94381.16;;;-144.06;27.22
11017;BME280;54687;50.800;6.772;2023-11-19T04:28:43;94307.06;;;-144.06;27.18
11017;BME280;54687;50.800;6.772;2023-11-19T04:31:10;94425.59;;;-144.06;27.56
11017;BME280;54687;50.800;6.772;2023-11-19T04:33:36;94442.53;;;-144.06;27.26
11017;BME280;54687;50.800;6.772;2023-11-19T04:36:03;94518.75;;;-144.06;27.27
11017;BME280;54687;50.800;6.772;2023-11-19T04:38:30;94491.22;;;-144.06;27.38
11017;BME280;54687;50.800;6.772;2023-11-19T04:40:57;94599.19;;;-144.06;27.35
11017;BME280;54687;50.800;6.772;2023-11-19T04:43:25;94666.91;;;-144.06;27.66
11017;BME280;54687;50.800;6.772;2023-11-19T04:45:51;94639.41;;;-144.06;27.47
11017;BME280;54687;50.800;6.772;2023-11-19T04:48:18;94654.22;;;-144.06;27.84
11017;BME280;54687;50.800;6.772;2023-11-19T04:50:44;94743.13;;;-144.06;27.82
11017;BME280;54687;50.800;6.772;2023-11-19T04:53:11;94658.44;;;-144.06;27.79
11017;BME280;54687;50.800;6.772;2023-11-19T04:55:39;94692.31;;;-144.06;27.89
11017;BME280;54687;50.800;6.772;2023-11-19T04:58:06;94662.69;;;-144.06;27.35
11017;BME280;54687;50.800;6.772;2023-11-19T05:00:34;94590.72;;;-144.06;27.70
11017;BME280;54687;50.800;6.772;2023-11-19T05:03:01;94633.06;;;-144.06;27.30
11017;BME280;54687;50.800;6.772;2023-11-19T05:05:28;94588.59;;;-144.06;27.22
11017;BME280;54687;50.800;6.772;2023-11-19T05:07:55;94728.31;;;-144.06;27.68
11017;BME280;54687;50.800;6.772;2023-11-19T05:10:21;94652.09;;;-144.06;27.54
11017;BME280;54687;50.800;6.772;2023-11-19T05:12:48;94692.31;;;-144.06;27.65
11017;BME280;54687;50.800;6.772;2023-11-19T05:15:17;94683.84;;;-144.06;27.67
11017;BME280;54687;50.800;6.772;2023-11-19T05:17:45;94736.78;;;-144.06;27.64
11017;BME280;54687;50.800;6.772;2023-11-19T05:20:12;94817.22;;;-144.06;27.48
11017;BME280;54687;50.800;6.772;2023-11-19T05:22:39;94802.41;;;-144.06;27.44
11017;BME280;54687;50.800;6.772;2023-11-19T05:25:07;94741.00;;;-144.06;27.33
11017;BME280;54687;50.800;6.772;2023-11-19T05:27:34;94688.09;;;-144.06;27.61
11017;BME280;54687;50.800;6.772;2023-11-19T05:30:01;94681.75;;;-144.06;27.42
11017;BME280;54687;50.800;6.772;2023-11-19T05:32:28;94666.91;;;-144.06;27.09
11017;BME280;54687;50.800;6.772;2023-11-19T05:34:56;94734.66;;;-144.06;27.16
11017;BME280;54687;50.800;6.772;2023-11-19T05:37:22;94815.09;;;-144.06;27.55
11017;BME280;54687;50.800;6.772;2023-11-19T05:39:50;94846.84;;;-144.06;27.60
11017;BME280;54687;50.800;6.772;2023-11-19T05:42:17;94781.22;;;-144.06;27.38
11017;BME280;54687;50.800;6.772;2023-11-19T05:44:44;94895.53;;;-144.06;27.51
11017;BME280;54687;50.800;6.772;2023-11-19T05:47:12;94823.56;;;-144.06;27.33
11017;BME280;54687;50.800;6.772;2023-11-19T05:49:38;94832.03;;;-144.06;27.46
11017;BME280;54687;50.800;6.772;2023-11-19T05:52:06;94868.03;;;-144.06;27.62
11017;BME280;54687;50.800;6.772;2023-11-19T05:54:35;94836.28;;;-144.06;27.40
11017;BME280;54687;50.800;6.772;2023-11-19T05:57:04;94842.63;;;-144.06;27.33
11017;BME280;54687;50.800;6.772;2023-11-19T05:59:31;94918.84;;;-144.06;27.57
11017;BME280;54687;50.800;6.772;2023-11-19T06:01:58;94904.00;;;-144.06;27.48
11017;BME280;54687;50.800;6.772;2023-11-19T06:04:25;94931.53;;;-144.06;27.64
11017;BME280;54687;50.800;6.772;2023-11-19T06:06:51;94959.06;;;-144.06;27.59
11017;BME280;54687;50.800;6.772;2023-11-19T06:09:21;94857.44;;;-144.06;27.39
11017;BME280;54687;50.800;6.772;2023-11-19T06:11:49;94925.19;;;-144.06;27.62
11017;BME280;54687;50.800;6.772;2023-11-19T06:14:16;94891.31;;;-144.06;27.65
11017;BME280;54687;50.800;6.772;2023-11-19T06:16:42;94897.66;;;-144.06;27.56
11017;BME280;54687;50.800;6.772;2023-11-19T06:19:09;94914.59;;;-144.06;27.80
11017;BME280;54687;50.800;6.772;2023-11-19T06:21:37;94832.03;;;-144.06;27.75
11017;BME280;54687;50.800;6.772;2023-11-19T06:24:04;94777.00;;;-144.06;27.62
11017;BME280;54687;50.800;6.772;2023-11-19T06:26:32;94777.00;;;-144.06;27.55
11017;BME280;54687;50.800;6.772;2023-11-19T06:28:59;94766.41;;;-144.06;27.52
11017;BME280;54687;50.800;6.772;2023-11-19T06:31:25;94802.41;;;-144.06;27.33
11017;BME280;54687;50.800;6.772;2023-11-19T06:33:52;94793.94;;;-144.06;27.33
11017;BME280;54687;50.800;6.772;2023-11-19T06:36:19;94810.88;;;-144.06;27.54
11017;BME280;54687;50.800;6.772;2023-11-19T06:38:46;94863.78;;;-144.06;27.28
11017;BME280;54687;50.800;6.772;2023-11-19T06:41:13;94855.31;;;-144.06;27.71
11017;BME280;54687;50.800;6.772;2023-11-19T06:43:42;94861.69;;;-144.06;27.76
11017;BME280;54687;50.800;6.772;2023-11-19T06:46:14;94916.72;;;-144.06;27.53
11017;BME280;54687;50.800;6.772;2023-11-19T06:48:41;94834.16;;;-144.06;27.30
11017;BME280;54687;50.800;6.772;2023-11-19T06:51:09;94933.66;;;-144.06;27.28
11017;BME280;54687;50.800;6.772;2023-11-19T06:53:35;94861.69;;;-144.06;27.26
11017;BME280;54687;50.800;6.772;2023-11-19T06:56:02;94908.25;;;-144.06;27.27
11017;BME280;54687;50.800;6.772;2023-11-19T06:58:31;94914.59;;;-144.06;27.42
11017;BME280;54687;50.800;6.772;2023-11-19T07:00:59;94848.97;;;-144.06;27.12
11017;BME280;54687;50.800;6.772;2023-11-19T07:03:25;94836.28;;;-144.06;27.25
11017;BME280;54687;50.800;6.772;2023-11-19T07:05:52;94827.81;;;-144.06;27.30
11017;BME280;54687;50.800;6.772;2023-11-19T07:08:20;94832.03;;;-144.06;27.31
11017;BME280;54687;50.800;6.772;2023-11-19T07:10:46;94817.22;;;-144.06;27.21
11017;BME280;54687;50.800;6.772;2023-11-19T07:13:13;94887.09;;;-144.06;26.98
11017;BME280;54687;50.800;6.772;2023-11-19T07:15:40;94904.00;;;-144.06;27.06
11017;BME280;54687;50.800;6.772;2023-11-19T07:18:08;94848.97;;;-144.06;27.16
11017;BME280;54687;50.800;6.772;2023-11-19T07:20:36;94827.81;;;-144.06;27.04
11017;BME280;54687;50.800;6.772;2023-11-19T07:23:03;94865.91;;;-144.06;27.04
11017;BME280;54687;50.800;6.772;2023-11-19T07:25:30;94942.13;;;-144.06;27.30
11017;BME280;54687;50.800;6.772;2023-11-19T07:27:56;94954.81;;;-144.06;27.08
11017;BME280;54687;50.800;6.772;2023-11-19T07:30:23;94904.00;;;-144.06;27.16
11017;BME280;54687;50.800;6.772;2023-11-19T07:32:49;94923.06;;;-144.06;27.20
11017;BME280;54687;50.800;6.772;2023-11-19T07:35:17;94912.47;;;-144.06;27.06
11017;BME280;54687;50.800;6.772;2023-11-19T07:37:44;95024.69;;;-144.06;27.65
11017;BME280;54687;50.800;6.772;2023-11-19T07:40:13;95092.44;;;-144.06;27.57
11017;BME280;54687;50.800;6.772;2023-11-19T07:42:39;95039.50;;;-144.06;27.72
11017;BME280;54687;50.800;6.772;2023-11-19T07:45:07;95073.38;;;-144.06;27.79
11017;BME280;54687;50.800;6.772;2023-11-19T07:47:33;95005.63;;;-144.06;27.81
11017;BME280;54687;50.800;6.772;2023-11-19T07:50:00;94874.38;;;-144.06;27.62
11017;BME280;54687;50.800;6.772;2023-11-19T07:52:28;94827.81;;;-144.06;27.31
11017;BME280;54687;50.800;6.772;2023-11-19T07:54:55;94912.47;;;-144.06;27.35
11017;BME280;54687;50.800;6.772;2023-11-19T07:57:22;94859.56;;;-144.06;27.18
11017;BME280;54687;50.800;6.772;2023-11-19T07:59:49;94937.88;;;-144.06;27.43
11017;BME280;54687;50.800;6.772;2023-11-19T08:02:16;94755.84;;;-144.06;27.14
11017;BME280;54687;50.800;6.772;2023-11-19T08:04:43;94749.47;;;-144.06;26.81
11017;BME280;54687;50.800;6.772;2023-11-19T08:07:11;94755.84;;;-144.06;26.96
11017;BME280;54687;50.800;6.772;2023-11-19T08:09:39;94779.13;;;-144.06;26.70
11017;BME280;54687;50.800;6.772;2023-11-19T08:12:06;94747.38;;;-144.06;27.01
11017;BME280;54687;50.800;6.772;2023-11-19T08:14:35;94783.34;;;-144.06;26.93
11017;BME280;54687;50.800;6.772;2023-11-19T08:17:02;94802.41;;;-144.06;26.86
11017;BME280;54687;50.800;6.772;2023-11-19T08:19:29;94813.00;;;-144.06;26.67
11017;BME280;54687;50.800;6.772;2023-11-19T08:21:56;94755.84;;;-144.06;26.52
11017;BME280;54687;50.800;6.772;2023-11-19T08:24:22;94696.56;;;-144.06;26.63
11017;BME280;54687;50.800;6.772;2023-11-19T08:26:50;94685.97;;;-144.06;26.27
11017;BME280;54687;50.800;6.772;2023-11-19T08:29:17;94821.44;;;-144.06;26.56
11017;BME280;54687;50.800;6.772;2023-11-19T08:31:43;94730.44;;;-144.06;26.58
11017;BME280;54687;50.800;6.772;2023-11-19T08:34:11;94865.91;;;-144.06;26.50
11017;BME280;54687;50.800;6.772;2023-11-19T08:36:37;94808.75;;;-144.06;26.53
11017;BME280;54687;50.800;6.772;2023-11-19T08:39:04;94751.59;;;-144.06;26.54
11017;BME280;54687;50.800;6.772;2023-11-19T08:41:31;94783.34;;;-144.06;26.59
11017;BME280;54687;50.800;6.772;2023-11-19T08:44:00;94813.00;;;-144.06;26.32
11017;BME280;54687;50.800;6.772;2023-11-19T08:46:26;94777.00;;;-144.06;26.49
11017;BME280;54687;50.800;6.772;2023-11-19T08:48:53;94766.41;;;-144.06;26.47
11017;BME280;54687;50.800;6.772;2023-11-19T08:51:22;94730.44;;;-144.06;26.42
11017;BME280;54687;50.800;6.772;2023-11-19T08:53:50;94637.28;;;-144.06;26.21
11017;BME280;54687;50.800;6.772;2023-11-19T08:56:16;94777.00;;;-144.06;26.47
11017;BME280;54687;50.800;6.772;2023-11-19T08:58:43;94804.53;;;-144.06;26.44
11017;BME280;54687;50.800;6.772;2023-11-19T09:01:11;94594.94;;;-144.06;26.25
11017;BME280;54687;50.800;6.772;2023-11-19T09:03:38;94633.06;;;-144.06;26.22
11017;BME280;54687;50.800;6.772;2023-11-19T09:06:06;94616.13;;;-144.06;25.98
11017;BME280;54687;50.800;6.772;2023-11-19T09:08:32;94592.84;;;-144.06;25.96
11017;BME280;54687;50.800;6.772;2023-11-19T09:10:59;94607.66;;;-144.06;26.05
11017;BME280;54687;50.800;6.772;2023-11-19T09:13:25;94616.13;;;-144.06;25.86
11017;BME280;54687;50.800;6.772;2023-11-19T09:15:52;94520.88;;;-144.06;25.78
11017;BME280;54687;50.800;6.772;2023-11-19T09:18:20;94493.34;;;-144.06;25.98
11017;BME280;54687;50.800;6.772;2023-11-19T09:20:47;94467.94;;;-144.06;25.58
11017;BME280;54687;50.800;6.772;2023-11-19T09:23:13;94431.97;;;-144.06;25.77
11017;BME280;54687;50.800;6.772;2023-11-19T09:25:40;94434.06;;;-144.06;25.90
11017;BME280;54687;50.800;6.772;2023-11-19T09:28:07;94446.78;;;-144.06;25.87
11017;BME280;54687;50.800;6.772;2023-11-19T09:30:34;94497.56;;;-144.06;25.39
11017;BME280;54687;50.800;6.772;2023-11-19T09:33:00;94412.91;;;-144.06;25.45
11017;BME280;54687;50.800;6.772;2023-11-19T09:35:29;94423.50;;;-144.06;25.63
11017;BME280;54687;50.800;6.772;2023-11-19T09:37:55;94633.06;;;-144.06;25.51
11017;BME280;54687;50.800;6.772;2023-11-19T09:40:23;94459.47;;;-144.06;25.77
11017;BME280;54687;50.800;6.772;2023-11-19T09:42:50;94571.66;;;-144.06;25.72
11017;BME280;54687;50.800;6.772;2023-11-19T09:45:17;94512.41;;;-144.06;25.27
11017;BME280;54687;50.800;6.772;2023-11-19T09:47:47;94607.66;;;-144.06;25.55
11017;BME280;54687;50.800;6.772;2023-11-19T09:50:16;94385.41;;;-144.06;25.46
11017;BME280;54687;50.800;6.772;2023-11-19T09:52:46;94408.69;;;-144.06;25.42
11017;BME280;54687;50.800;6.772;2023-11-19T09:55:13;94400.22;;;-144.06;25.15
11017;BME280;54687;50.800;6.772;2023-11-19T09:57:41;94372.69;;;-144.06;25.56
11017;BME280;54687;50.800;6.772;2023-11-19T10:00:10;94374.81;;;-144.06;25.34
11017;BME280;54687;50.800;6.772;2023-11-19T10:02:38;94298.63;;;-144.06;25.28
11017;BME280;54687;50.800;6.772;2023-11-19T10:05:07;94230.88;;;-144.06;25.10
11017;BME280;54687;50.800;6.772;2023-11-19T10:07:34;94129.28;;;-144.06;25.11
11017;BME280;54687;50.800;6.772;2023-11-19T10:10:03;94112.34;;;-144.06;25.09
11017;BME280;54687;50.800;6.772;2023-11-19T10:12:30;94290.16;;;-144.06;25.38
11017;BME280;54687;50.800;6.772;2023-11-19T10:14:57;94285.91;;;-144.06;25.24
11017;BME280;54687;50.800;6.772;2023-11-19T10:17:27;94252.03;;;-144.06;25.01
11017;BME280;54687;50.800;6.772;2023-11-19T10:19:54;94266.88;;;-144.06;25.23
11017;BME280;54687;50.800;6.772;2023-11-19T10:22:22;94218.19;;;-144.06;24.94
11017;BME280;54687;50.800;6.772;2023-11-19T10:24:49;94233.00;;;-144.06;25.01
11017;BME280;54687;50.800;6.772;2023-11-19T10:27:17;94137.75;;;-144.06;24.98
11017;BME280;54687;50.800;6.772;2023-11-19T10:29:45;94150.44;;;-144.06;24.74
11017;BME280;54687;50.800;6.772;2023-11-19T10:32:12;94285.91;;;-144.06;25.16
11017;BME280;54687;50.800;6.772;2023-11-19T10:34:38;94097.53;;;-144.06;24.70
11017;BME280;54687;50.800;6.772;2023-11-19T10:37:07;94091.19;;;-144.06;24.44
11017;BME280;54687;50.800;6.772;2023-11-19T10:39:51;94017.13;;;-144.06;24.35
11017;BME280;54687;50.800;6.772;2023-11-19T10:42:20;93964.22;;;-144.06;24.25
11017;BME280;54687;50.800;6.772;2023-11-19T10:44:46;93862.63;;;-144.06;24.13
11017;BME280;54687;50.800;6.772;2023-11-19T10:47:14;93938.81;;;-144.06;24.09
11017;BME280;54687;50.800;6.772;2023-11-19T10:49:42;93945.16;;;-144.06;24.26
11017;BME280;54687;50.800;6.772;2023-11-19T10:52:11;93928.22;;;-144.06;24.32
11017;BME280;54687;50.800;6.772;2023-11-19T10:54:44;93940.91;;;-144.06;24.09
11017;BME280;54687;50.800;6.772;2023-11-19T10:57:12;93769.50;;;-144.06;24.12
11017;BME280;54687;50.800;6.772;2023-11-19T10:59:47;93790.66;;;-144.06;24.19
11017;BME280;54687;50.800;6.772;2023-11-19T11:02:18;93680.63;;;-144.06;24.17
11017;BME280;54687;50.800;6.772;2023-11-19T11:04:49;93663.69;;;-144.06;23.84
11017;BME280;54687;50.800;6.772;2023-11-19T11:07:21;93826.63;;;-144.06;23.98
11017;BME280;54687;50.800;6.772;2023-11-19T11:09:48;93828.75;;;-144.06;23.88
11017;BME280;54687;50.800;6.772;2023-11-19T11:12:17;93824.53;;;-144.06;23.76
11017;BME280;54687;50.800;6.772;2023-11-19T11:14:44;93902.81;;;-144.06;24.14
11017;BME280;54687;50.800;6.772;2023-11-19T11:17:16;94106.00;;;-144.06;23.95
11017;BME280;54687;50.800;6.772;2023-11-19T11:19:43;94027.69;;;-144.06;23.99
11017;BME280;54687;50.800;6.772;2023-11-19T11:22:10;94080.59;;;-144.06;24.26
11017;BME280;54687;50.800;6.772;2023-11-19T11:24:57;94144.09;;;-144.06;24.16
11017;BME280;54687;50.800;6.772;2023-11-19T11:27:59;94213.94;;;-144.06;25.14
11017;BME280;54687;50.800;6.772;2023-11-19T11:30:39;94319.78;;;-144.06;25.05
11017;BME280;54687;50.800;6.772;2023-11-19T11:33:26;94233.00;;;-144.06;25.09
11017;BME280;54687;50.800;6.772;2023-11-19T11:36:09;94266.88;;;-144.06;25.45
11017;BME280;54687;50.800;6.772;2023-11-19T11:38:40;94222.41;;;-144.06;25.09
11017;BME280;54687;50.800;6.772;2023-11-19T11:41:18;94277.44;;;-144.06;25.24
11017;BME280;54687;50.800;6.772;2023-11-19T11:43:48;94173.72;;;-144.06;24.95
11017;BME280;54687;50.800;6.772;2023-11-19T11:46:53;94129.28;;;-144.06;25.14
11017;BME280;54687;50.800;6.772;2023-11-19T11:49:28;94158.91;;;-144.06;24.89
11017;BME280;54687;50.800;6.772;2023-11-19T11:52:00;94046.75;;;-144.06;24.67
11017;BME280;54687;50.800;6.772;2023-11-19T11:54:28;94063.69;;;-144.06;24.85
11017;BME280;54687;50.800;6.772;2023-11-19T11:57:16;94080.59;;;-144.06;24.62
11017;BME280;54687;50.800;6.772;2023-11-19T11:59:47;94099.66;;;-144.06;24.82
11017;BME280;54687;50.800;6.772;2023-11-19T12:02:16;94070.03;;;-144.06;24.68
11017;BME280;54687;50.800;6.772;2023-11-19T12:04:46;94031.94;;;-144.06;24.68
11017;BME280;54687;50.800;6.772;2023-11-19T12:07:16;94057.31;;;-144.06;24.78
11017;BME280;54687;50.800;6.772;2023-11-19T12:09:47;93959.97;;;-144.06;24.83
11017;BME280;54687;50.800;6.772;2023-11-19T12:12:19;94103.88;;;-144.06;24.68
11017;BME280;54687;50.800;6.772;2023-11-19T12:15:07;94285.91;;;-144.06;25.05
11017;BME280;54687;50.800;6.772;2023-11-19T12:17:44;94268.97;;;-144.06;25.14
11017;BME280;54687;50.800;6.772;2023-11-19T12:20:16;94235.13;;;-144.06;24.91
11017;BME280;54687;50.800;6.772;2023-11-19T12:22:44;94207.59;;;-144.06;24.85
11017;BME280;54687;50.800;6.772;2023-11-19T12:25:12;94268.97;;;-144.06;24.69
11017;BME280;54687;50.800;6.772;2023-11-19T12:27:40;94209.72;;;-144.06;24.86
11017;BME280;54687;50.800;6.772;2023-11-19T12:30:08;94188.56;;;-144.06;25.15
11017;BME280;54687;50.800;6.772;2023-11-19T12:32:39;94224.53;;;-144.06;25.17
11017;BME280;54687;50.800;6.772;2023-11-19T12:35:07;94336.72;;;-144.06;25.08
11017;BME280;54687;50.800;6.772;2023-11-19T12:37:41;94116.59;;;-144.06;24.83
11017;BME280;54687;50.800;6.772;2023-11-19T12:40:16;94108.13;;;-144.06;24.87
11017;BME280;54687;50.800;6.772;2023-11-19T12:42:43;94218.19;;;-144.06;24.88
11017;BME280;54687;50.800;6.772;2023-11-19T12:45:10;94131.41;;;-144.06;24.97
11017;BME280;54687;50.800;6.772;2023-11-19T12:47:38;93998.06;;;-144.06;24.89